| time (UTC) | temp C | wind direction | speed KPH | gust KPH | rain 1hr cm | rain 24hr cm | rain mn cm | humidity % | barometer mb |
| 20260906010003 | 16 | 232 | 0.0 | 0.0 | 0.00 | 0.51 | 0.00 | 72 | 1026.0 |
| 20260906004502 | 17 | 217 | 0.0 | 0.0 | 0.00 | 0.51 | 0.00 | 73 | 1026.0 |
| 20260906003059 | 17 | 240 | 0.0 | 0.0 | 0.00 | 0.51 | 0.00 | 73 | 1025.8 |
| 20260906001556 | 17 | 235 | 0.0 | 0.0 | 0.00 | 0.51 | 0.00 | 73 | 1025.8 |
| 20260906000056 | 17 | 243 | 0.0 | 0.0 | 0.00 | 0.51 | 0.00 | 72 | 1025.7 |
| 20260905234611 | 17 | 227 | 0.0 | 0.0 | 0.00 | 0.51 | 0.00 | 71 | 1025.6 |
| 20260905233054 | 17 | 274 | 0.0 | 0.0 | 0.00 | 0.51 | 0.00 | 70 | 1025.7 |
| 20260905231555 | 17 | 265 | 0.0 | 0.0 | 0.00 | 0.51 | 0.00 | 68 | 1025.6 |
| 20260905230115 | 17 | 242 | 0.0 | 0.0 | 0.00 | 0.51 | 0.00 | 67 | 1025.4 |
| 20260905224614 | 17 | 233 | 0.0 | 0.0 | 0.00 | 0.51 | 0.00 | 69 | 1025.3 |
| 20260905223047 | 17 | 241 | 0.0 | 0.0 | 0.00 | 0.51 | 0.00 | 72 | 1025.1 |
| 20260905221543 | 17 | 244 | 0.0 | 0.0 | 0.00 | 0.51 | 0.00 | 75 | 1025.0 |
| 20260905220041 | 18 | 237 | 0.0 | 0.0 | 0.00 | 0.51 | 0.00 | 76 | 1024.9 |
| 20260905214539 | 18 | 246 | 0.0 | 0.0 | 0.00 | 0.51 | 0.51 | 76 | 1024.8 |
| 20260905213038 | 18 | 252 | 0.0 | 0.0 | 0.00 | 0.51 | 0.51 | 76 | 1024.6 |
| 20260905211538 | 17 | 254 | 0.0 | 0.0 | 0.00 | 0.51 | 0.51 | 76 | 1024.4 |
| 20260905210034 | 17 | 267 | 0.0 | 0.0 | 0.00 | 0.51 | 0.51 | 76 | 1024.1 |
| 20260905204534 | 17 | 250 | 0.0 | 0.0 | 0.00 | 0.51 | 0.51 | 75 | 1023.9 |
| 20260905203033 | 17 | 246 | 0.0 | 0.0 | 0.00 | 0.51 | 0.51 | 74 | 1024.0 |
| 20260905201532 | 18 | 254 | 0.0 | 0.0 | 0.00 | 0.51 | 0.51 | 73 | 1023.9 |
| 20260905200028 | 18 | 243 | 0.0 | 0.0 | 0.00 | 0.51 | 0.51 | 72 | 1023.7 |
| 20260905194528 | 18 | 241 | 0.0 | 0.0 | 0.00 | 0.51 | 0.51 | 70 | 1023.7 |
| 20260905193027 | 18 | 266 | 0.0 | 0.0 | 0.00 | 0.51 | 0.51 | 69 | 1023.6 |
| 20260905191526 | 18 | 261 | 0.0 | 0.0 | 0.00 | 0.51 | 0.51 | 67 | 1023.5 |
| 20260905190024 | 18 | 255 | 0.0 | 0.0 | 0.00 | 0.51 | 0.51 | 66 | 1023.4 |
| 20260905184524 | 18 | 253 | 0.0 | 0.0 | 0.00 | 0.51 | 0.51 | 66 | 1023.2 |
| 20260905183020 | 18 | 234 | 0.0 | 0.0 | 0.00 | 0.51 | 0.51 | 66 | 1023.1 |
| 20260905181518 | 19 | 244 | 0.0 | 0.0 | 0.00 | 0.51 | 0.51 | 66 | 1022.9 |
| 20260905180017 | 19 | 236 | 0.0 | 0.0 | 0.00 | 0.51 | 0.51 | 66 | 1022.7 |
| 20260905174514 | 20 | 240 | 0.0 | 0.0 | 0.00 | 0.51 | 0.51 | 64 | 1022.4 |
| 20260905173013 | 20 | 261 | 0.0 | 0.0 | 0.00 | 0.51 | 0.51 | 62 | 1022.2 |
| 20260905171516 | 21 | 229 | 0.0 | 0.0 | 0.00 | 0.51 | 0.51 | 60 | 1022.1 |
| 20260905170012 | 21 | 248 | 0.0 | 0.0 | 0.00 | 0.51 | 0.51 | 59 | 1022.1 |
| 20260905164518 | 21 | 173 | 0.0 | 0.0 | 0.00 | 0.51 | 0.51 | 59 | 1022.1 |
| 20260905163010 | 21 | 244 | 0.0 | 0.0 | 0.00 | 0.51 | 0.51 | 59 | 1021.9 |
| 20260905161509 | 22 | 236 | 0.0 | 0.0 | 0.00 | 0.51 | 0.51 | 59 | 1021.8 |
| 20260905160018 | 21 | 257 | 0.0 | 0.0 | 0.00 | 0.51 | 0.51 | 62 | 1021.8 |
| 20260905154508 | 21 | 277 | 0.0 | 0.0 | 0.00 | 0.51 | 0.51 | 62 | 1021.8 |
| 20260905153008 | 22 | 262 | 0.0 | 0.0 | 0.00 | 0.51 | 0.51 | 62 | 1021.9 |
| 20260905151507 | 22 | 244 | 0.0 | 0.0 | 0.00 | 0.51 | 0.51 | 60 | 1021.9 |
| 20260905150005 | 22 | 304 | 0.0 | 0.0 | 0.00 | 0.51 | 0.51 | 60 | 1021.7 |
| 20260905144505 | 22 | 238 | 0.0 | 0.0 | 0.00 | 0.51 | 0.51 | 60 | 1021.7 |
| 20260905143006 | 22 | 213 | 0.0 | 0.0 | 0.00 | 0.51 | 0.51 | 61 | 1021.7 |
| 20260905141506 | 22 | 228 | 0.0 | 0.0 | 0.00 | 0.51 | 0.51 | 61 | 1021.9 |
| 20260905140004 | 21 | 274 | 0.0 | 0.0 | 0.00 | 0.51 | 0.51 | 65 | 1021.9 |
| 20260905134503 | 21 | 246 | 0.0 | 0.0 | 0.00 | 0.51 | 0.51 | 64 | 1021.6 |
| 20260905133004 | 21 | 279 | 0.0 | 0.0 | 0.00 | 0.51 | 0.51 | 64 | 1021.5 |
| 20260905131502 | 21 | 232 | 0.0 | 0.0 | 0.00 | 0.51 | 0.51 | 65 | 1021.6 |
| 20260905130001 | 22 | 292 | 0.0 | 0.0 | 0.00 | 0.51 | 0.51 | 62 | 1021.8 |
| 20260905124501 | 22 | 250 | 0.0 | 0.0 | 0.00 | 0.51 | 0.51 | 64 | 1021.9 |
| 20260905123059 | 21 | 227 | 0.0 | 0.0 | 0.00 | 0.51 | 0.51 | 66 | 1022.0 |
| 20260905121603 | 21 | 247 | 0.0 | 0.0 | 0.00 | 0.51 | 0.51 | 66 | 1021.9 |
| 20260905114557 | 20 | 250 | 0.0 | 0.0 | 0.00 | 0.51 | 0.51 | 69 | 1022.0 |
| 20260905113107 | 21 | 224 | 0.0 | 0.0 | 0.03 | 0.51 | 0.51 | 67 | 1022.0 |
| 20260905111555 | 21 | 253 | 0.0 | 0.0 | 0.03 | 0.51 | 0.51 | 68 | 1022.0 |
| 20260905110055 | 21 | 217 | 0.0 | 0.0 | 0.03 | 0.51 | 0.51 | 70 | 1021.9 |
| 20260905104554 | 20 | 242 | 0.0 | 0.0 | 0.03 | 0.51 | 0.51 | 75 | 1021.8 |
| 20260905103056 | 19 | 281 | 0.0 | 0.0 | 0.00 | 0.48 | 0.48 | 72 | 1022.0 |
| 20260905101553 | 18 | 254 | 0.0 | 0.0 | 0.00 | 0.48 | 0.48 | 66 | 1022.1 |
| 20260905100057 | 18 | 256 | 0.0 | 0.0 | 0.00 | 0.48 | 0.48 | 45 | 1022.1 |
| 20260905094552 | 17 | 288 | 0.0 | 0.0 | 0.00 | 0.48 | 0.48 | 40 | 1022.2 |
| 20260905093054 | 16 | 242 | 0.0 | 185.1 | 0.00 | 0.48 | 0.48 | 36 | 1022.1 |
| 20260905091544 | 16 | 228 | 178.6 | 181.9 | 0.00 | 0.48 | 0.48 | 36 | 1022.1 |
| 20260905090041 | 15 | 247 | 181.9 | 185.1 | 0.00 | 0.48 | 0.48 | 37 | 1022.1 |
| 20260905084540 | 15 | 248 | 181.9 | 185.1 | 0.00 | 0.48 | 0.48 | 39 | 1022.4 |
| 20260905083038 | 15 | 251 | 183.5 | 185.1 | 0.05 | 0.48 | 0.48 | 41 | 1022.5 |
| 20260905081536 | 15 | 360 | 180.2 | 185.1 | 0.08 | 0.48 | 0.48 | 42 | 1022.2 |
| 20260905080040 | 15 | 224 | 178.6 | 185.1 | 0.13 | 0.48 | 0.48 | 44 | 1022.3 |
| 20260905074534 | 15 | 198 | 180.2 | 185.1 | 0.15 | 0.48 | 0.48 | 50 | 1022.2 |
| 20260905073033 | 15 | 270 | 183.5 | 186.7 | 0.23 | 0.43 | 0.43 | 53 | 1022.4 |
| 20260905071532 | 15 | 360 | 181.9 | 185.1 | 0.33 | 0.41 | 0.41 | 59 | 1022.1 |
| 20260905070034 | 15 | 261 | 183.5 | 186.7 | 0.33 | 0.36 | 0.36 | 68 | 1022.3 |
| 20260905064528 | 15 | 291 | 183.5 | 185.1 | 0.30 | 0.33 | 0.33 | 74 | 1021.6 |
| 20260905063022 | 16 | 295 | 183.5 | 185.1 | 0.18 | 0.20 | 0.20 | 78 | 1021.8 |
| 20260905061518 | 18 | 306 | 181.9 | 183.5 | 0.05 | 0.05 | 0.05 | 71 | 1021.7 |
| 20260905060014 | 18 | 261 | 0.0 | 0.0 | 0.00 | 0.03 | 0.03 | 67 | 1020.8 |
| 20260905054511 | 19 | 289 | 0.0 | 0.0 | 0.00 | 0.03 | 0.03 | 68 | 1020.2 |
| 20260905053009 | 19 | 311 | 0.0 | 0.0 | 0.00 | 0.03 | 0.03 | 70 | 1019.5 |
| 20260905051503 | 19 | 231 | 0.0 | 0.0 | 0.03 | 0.03 | 0.03 | 72 | 1019.0 |
| 20260905044557 | 20 | 252 | 0.0 | 0.0 | 0.03 | 0.03 | 0.03 | 73 | 1018.2 |
| 20260905043057 | 21 | 245 | 0.0 | 183.5 | 0.03 | 0.03 | 0.03 | 72 | 1017.6 |
| 20260905041548 | 21 | 236 | 0.0 | 0.0 | 0.00 | 0.00 | 0.00 | 73 | 1016.8 |
| 20260905040053 | 21 | 238 | 0.0 | 0.0 | 0.00 | 0.00 | 0.00 | 72 | 1016.3 |
| 20260905034543 | 21 | 262 | 0.0 | 0.0 | 0.00 | 0.00 | 0.00 | 72 | 1015.9 |
| 20260905033043 | 21 | 240 | 0.0 | 0.0 | 0.00 | 0.00 | 0.00 | 71 | 1015.8 |
| 20260905031547 | 22 | 250 | 0.0 | 0.0 | 0.00 | 0.00 | 0.00 | 70 | 1015.8 |
| 20260905030039 | 22 | 225 | 0.0 | 0.0 | 0.00 | 0.00 | 0.00 | 70 | 1016.0 |
| 20260905024538 | 22 | 273 | 0.0 | 0.0 | 0.00 | 0.00 | 0.00 | 70 | 1015.9 |
| 20260905023035 | 22 | 228 | 0.0 | 0.0 | 0.00 | 0.00 | 0.00 | 69 | 1015.7 |
| 20260905021533 | 23 | 252 | 0.0 | 0.0 | 0.00 | 0.00 | 0.00 | 63 | 1015.6 |
| 20260905020041 | 24 | 242 | 0.0 | 0.0 | 0.00 | 0.00 | 0.00 | 56 | 1015.4 |
| 20260905014523 | 24 | 248 | 0.0 | 0.0 | 0.00 | 0.00 | 0.00 | 53 | 1015.4 |
| 20260905013030 | 25 | 255 | 0.0 | 0.0 | 0.00 | 0.00 | 0.00 | 53 | 1015.3 |
| 20260905011531 | 25 | 247 | 0.0 | 0.0 | 0.00 | 0.00 | 0.00 | 53 | 1015.3 |